Time;durP1;ratioP1;P1;durP2;ratioP2;P2;SDS_P1;SDS_P2;PMS_P1;PMS_P2;Temp;Humidity;BMP_temperature;BMP_pressure;BME280_temperature;BME280_humidity;BME280_pressure;Samples;Min_cycle;Max_cycle;Signal;HPM_P1;HPM_P2
2021/12/03 00:00:09;;;;;;;12.45;9.00;;;;;;;7.07;73.39;97619.72;4339890;32;34524;-89
2021/12/03 00:02:36;;;;;;;13.60;9.20;;;;;;;6.59;75.17;97620.47;4359309;32;34280;-90
2021/12/03 00:05:05;;;;;;;11.15;8.50;;;;;;;7.27;72.26;97629.22;4347405;32;33774;-93
2021/12/03 00:07:40;;;;;;;10.70;7.22;;;;;;;6.67;74.17;97629.09;4347619;32;34647;-93
2021/12/03 00:10:10;;;;;;;9.80;7.25;;;;;;;6.41;74.20;97623.84;4359346;32;34188;-89
2021/12/03 00:12:39;;;;;;;10.82;6.55;;;;;;;6.64;73.33;97626.50;4347334;32;33751;-89
2021/12/03 00:15:09;;;;;;;10.35;6.57;;;;;;;6.41;74.17;97623.84;4345721;32;33742;-89
2021/12/03 00:17:37;;;;;;;9.30;6.62;;;;;;;6.56;73.80;97618.75;4347140;32;33777;-88
2021/12/03 00:20:07;;;;;;;10.68;6.07;;;;;;;6.39;74.00;97622.97;4347410;32;34081;-91
2021/12/03 00:22:35;;;;;;;9.77;5.90;;;;;;;6.65;73.24;97629.94;4346912;32;34271;-88
2021/12/03 00:25:03;;;;;;;8.45;5.37;;;;;;;6.79;72.50;97644.59;4359129;32;34376;-89
2021/12/03 00:27:31;;;;;;;9.90;5.40;;;;;;;6.51;72.97;97637.59;4344199;32;34064;-89
2021/12/03 00:29:58;;;;;;;7.43;5.15;;;;;;;7.08;70.95;97636.06;4354374;32;34472;-91
2021/12/03 00:32:26;;;;;;;8.50;5.10;;;;;;;6.58;72.73;97639.34;4347201;32;34270;-91
2021/12/03 00:34:53;;;;;;;7.78;5.20;;;;;;;6.57;73.01;97646.22;4350552;32;33818;-89
2021/12/03 00:37:21;;;;;;;7.97;5.65;;;;;;;6.72;72.59;97663.44;4346950;32;35006;-90
2021/12/03 00:39:49;;;;;;;7.12;4.70;;;;;;;6.56;73.17;97667.69;4359944;32;33509;-89
2021/12/03 00:42:18;;;;;;;7.55;5.18;;;;;;;6.61;72.78;97659.09;4359873;32;34379;-90
2021/12/03 00:44:51;;;;;;;8.38;5.30;;;;;;;6.69;72.78;97658.28;4346968;32;33694;-89
2021/12/03 00:47:18;;;;;;;9.38;4.90;;;;;;;6.78;72.69;97672.91;4347444;32;34825;-90
2021/12/03 00:49:46;;;;;;;8.50;5.57;;;;;;;6.79;72.59;97675.50;4356574;32;35080;-90
2021/12/03 00:52:14;;;;;;;7.93;4.68;;;;;;;7.35;70.45;97683.34;4359473;32;33032;-90
2021/12/03 00:54:42;;;;;;;10.40;5.43;;;;;;;7.17;71.00;97685.06;4346979;32;33494;-90
2021/12/03 00:57:09;;;;;;;9.13;6.28;;;;;;;7.13;71.23;97679.91;4347053;32;34873;-89
2021/12/03 00:59:37;;;;;;;8.07;5.47;;;;;;;7.01;71.56;97676.44;4360400;32;34665;-90
2021/12/03 01:02:04;;;;;;;8.70;5.70;;;;;;;7.08;71.20;97679.84;4360174;32;34221;-90
2021/12/03 01:04:32;;;;;;;10.57;6.07;;;;;;;7.05;71.35;97690.19;4345809;32;33426;-90
2021/12/03 01:07:00;;;;;;;10.02;6.40;;;;;;;6.95;71.91;97698.72;4346631;32;34228;-90
2021/12/03 01:09:31;;;;;;;10.73;6.25;;;;;;;6.86;71.72;97689.25;4346470;32;33899;-89
2021/12/03 01:11:59;;;;;;;9.00;6.43;;;;;;;6.80;72.14;97687.50;4347140;32;34174;-89
2021/12/03 01:14:26;;;;;;;11.30;6.70;;;;;;;6.79;71.70;97685.78;4359673;32;34807;-89
2021/12/03 01:16:54;;;;;;;10.02;6.55;;;;;;;6.74;72.08;97699.50;4359786;32;33723;-90
2021/12/03 01:19:22;;;;;;;9.77;6.97;;;;;;;7.20;70.70;97699.69;4360220;32;33569;-90
2021/12/03 01:21:49;;;;;;;10.55;6.87;;;;;;;6.96;71.68;97703.88;4360224;32;33172;-90
2021/12/03 01:24:17;;;;;;;10.80;7.55;;;;;;;7.23;70.58;97703.09;4359899;32;34564;-90
2021/12/03 01:26:45;;;;;;;9.73;6.72;;;;;;;7.39;69.79;97698.00;4358688;32;34461;-90
2021/12/03 01:29:13;;;;;;;11.88;7.70;;;;;;;6.90;71.37;97700.44;4358346;32;33904;-90
2021/12/03 01:31:40;;;;;;;9.98;6.90;;;;;;;7.46;69.48;97698.00;4360050;32;34109;-90
2021/12/03 01:34:08;;;;;;;9.65;6.85;;;;;;;7.22;70.43;97695.38;4358975;32;33979;-90
2021/12/03 01:36:35;;;;;;;9.75;6.80;;;;;;;7.06;70.71;97700.47;4359477;32;33932;-89
2021/12/03 01:39:03;;;;;;;11.32;7.45;;;;;;;6.65;71.49;97705.47;4346289;32;34110;-92
2021/12/03 01:41:32;;;;;;;10.63;7.25;;;;;;;7.03;70.89;97709.91;4360047;32;34430;-90
2021/12/03 01:44:02;;;;;;;11.10;7.18;;;;;;;7.07;70.65;97716.81;4335619;32;33529;-90
2021/12/03 01:46:31;;;;;;;9.75;7.68;;;;;;;6.86;71.14;97722.75;4359420;32;34139;-91
2021/12/03 01:48:59;;;;;;;10.50;7.90;;;;;;;6.73;71.46;97721.81;4357801;32;33270;-90
2021/12/03 01:51:27;;;;;;;11.63;7.70;;;;;;;6.52;72.01;97726.88;4340851;33;32998;-89
2021/12/03 01:53:55;;;;;;;10.70;7.93;;;;;;;6.15;73.91;97728.34;4319546;33;33126;-90
2021/12/03 01:56:23;;;;;;;10.43;7.62;;;;;;;6.24;73.05;97721.53;4339026;32;33621;-90
2021/12/03 01:58:52;;;;;;;11.48;7.43;;;;;;;5.94;73.87;97716.16;4354449;32;33846;-90
2021/12/03 02:01:23;;;;;;;9.68;6.68;;;;;;;6.36;72.60;97720.75;4359719;32;33356;-90
2021/12/03 02:03:54;;;;;;;12.75;7.07;;;;;;;6.30;72.83;97716.44;4358503;32;34211;-90
2021/12/03 02:06:23;;;;;;;11.18;7.68;;;;;;;6.27;72.41;97716.41;4346199;32;34410;-90
2021/12/03 02:08:51;;;;;;;10.77;7.90;;;;;;;5.87;74.64;97730.66;4346426;32;33358;-90
2021/12/03 02:11:19;;;;;;;10.57;7.78;;;;;;;5.80;74.78;97742.63;4359750;32;33221;-90
2021/12/03 02:13:47;;;;;;;10.90;7.68;;;;;;;5.93;74.39;97735.03;4358420;32;32469;-90
2021/12/03 02:16:16;;;;;;;14.18;8.32;;;;;;;5.59;75.78;97722.72;4346304;32;34883;-90
2021/12/03 02:18:44;;;;;;;10.80;7.62;;;;;;;5.80;75.77;97729.75;4359230;32;33780;-90
2021/12/03 02:21:12;;;;;;;12.35;8.40;;;;;;;5.76;74.79;97732.31;4345090;32;33690;-90
2021/12/03 02:23:41;;;;;;;11.60;8.50;;;;;;;6.01;73.85;97738.53;4358163;32;34848;-90
2021/12/03 02:26:08;;;;;;;13.02;8.88;;;;;;;5.98;74.66;97748.78;4359605;32;33850;-90
2021/12/03 02:28:43;;;;;;;11.93;8.90;;;;;;;5.73;75.84;97748.56;4331228;33;33808;-89
2021/12/03 02:31:13;;;;;;;13.02;9.02;;;;;;;5.49;76.24;97748.31;4344164;32;32096;-90
2021/12/03 02:33:41;;;;;;;12.07;9.52;;;;;;;6.13;74.06;97754.06;4358341;32;34771;-90
2021/12/03 02:36:09;;;;;;;13.05;9.07;;;;;;;5.85;74.97;97763.22;4345215;32;32534;-90
2021/12/03 02:38:37;;;;;;;14.23;8.90;;;;;;;5.69;75.52;97776.81;4345032;32;34553;-90
2021/12/03 02:41:04;;;;;;;13.50;9.70;;;;;;;5.92;74.41;97784.72;4330699;33;33279;-89
2021/12/03 02:43:32;;;;;;;12.60;9.40;;;;;;;5.81;74.58;97775.19;4350187;32;33531;-90
2021/12/03 02:45:59;;;;;;;15.93;10.35;;;;;;;6.08;74.10;97791.75;4359394;32;33365;-90
2021/12/03 02:48:28;;;;;;;13.68;10.32;;;;;;;5.77;75.16;97796.59;4345004;32;33944;-90
2021/12/03 02:50:55;;;;;;;14.23;10.57;;;;;;;5.95;74.74;97795.09;4359116;32;33203;-89
2021/12/03 02:53:23;;;;;;;14.07;10.88;;;;;;;6.16;74.11;97800.41;4358900;32;33995;-90
2021/12/03 02:55:51;;;;;;;13.30;10.27;;;;;;;6.24;73.58;97808.19;4340610;33;33734;-90
2021/12/03 02:58:20;;;;;;;15.77;11.77;;;;;;;5.93;74.85;97807.06;4358956;32;33985;-90
2021/12/03 03:00:49;;;;;;;15.52;11.38;;;;;;;5.86;75.11;97812.09;4360985;32;32718;-90
2021/12/03 03:03:17;;;;;;;14.95;10.95;;;;;;;5.84;75.50;97828.37;4359925;32;33310;-90
2021/12/03 03:05:51;;;;;;;17.27;11.75;;;;;;;6.30;73.84;97823.69;4360592;32;34797;-91
2021/12/03 03:08:19;;;;;;;17.40;13.07;;;;;;;5.80;75.71;97837.78;4347150;32;34762;-94
2021/12/03 03:10:47;;;;;;;16.67;12.50;;;;;;;5.67;75.78;97841.03;4347673;32;34439;-91
2021/12/03 03:13:14;;;;;;;19.50;13.18;;;;;;;5.76;75.69;97841.16;4359482;32;33935;-88
2021/12/03 03:15:42;;;;;;;19.92;13.55;;;;;;;5.94;75.21;97842.22;4361135;32;34181;-90
2021/12/03 03:18:21;;;;;;;18.33;12.70;;;;;;;6.06;74.61;97850.03;4360889;32;34869;-90
2021/12/03 03:20:52;;;;;;;18.73;13.00;;;;;;;6.24;74.20;97855.34;4360666;32;34394;-90
2021/12/03 03:23:20;;;;;;;18.62;14.40;;;;;;;6.33;74.03;97852.88;4347435;32;33462;-89
2021/12/03 03:25:49;;;;;;;21.52;16.20;;;;;;;5.42;77.52;97854.47;4346680;32;34231;-90
2021/12/03 03:28:18;;;;;;;21.95;16.70;;;;;;;5.80;76.22;97855.78;4346951;32;33813;-90
2021/12/03 03:30:49;;;;;;;23.77;19.67;;;;;;;5.75;76.69;97867.69;4360533;32;33870;-89
2021/12/03 03:33:17;;;;;;;29.48;20.33;;;;;;;5.32;78.09;97868.91;4360655;32;33850;-90
2021/12/03 03:35:45;;;;;;;29.40;20.30;;;;;;;5.61;77.87;97882.13;4357718;32;34670;-90
2021/12/03 03:38:13;;;;;;;28.80;21.70;;;;;;;5.93;76.34;97877.38;4347275;32;33443;-90
2021/12/03 03:40:42;;;;;;;31.90;25.30;;;;;;;5.77;76.70;97886.59;4360936;32;33198;-91
2021/12/03 03:43:10;;;;;;;32.03;22.27;;;;;;;5.66;77.67;97889.91;4360773;32;35286;-91
2021/12/03 03:45:39;;;;;;;30.58;24.48;;;;;;;5.77;76.75;97899.47;4346840;32;34563;-90
2021/12/03 03:48:07;;;;;;;27.75;21.48;;;;;;;5.99;75.86;97902.31;4358742;32;33462;-91
2021/12/03 03:50:35;;;;;;;32.25;22.70;;;;;;;6.00;75.92;97902.31;4347411;32;34145;-90
2021/12/03 03:53:03;;;;;;;34.65;24.67;;;;;;;5.41;78.26;97907.56;4347404;32;34929;-90
2021/12/03 03:55:32;;;;;;;33.13;24.33;;;;;;;5.35;78.87;97904.94;4360277;32;33962;-90
2021/12/03 03:58:00;;;;;;;37.20;24.25;;;;;;;5.30;78.93;97907.47;4360218;32;34796;-91
2021/12/03 04:00:30;;;;;;;34.42;25.50;;;;;;;5.21;79.36;97912.47;4360410;32;33685;-89
2021/12/03 04:02:58;;;;;;;35.53;25.88;;;;;;;5.53;77.99;97909.44;4360238;32;33501;-90
2021/12/03 04:05:26;;;;;;;34.92;25.50;;;;;;;5.44;78.35;97911.91;4347309;32;35159;-90
2021/12/03 04:07:54;;;;;;;35.78;27.77;;;;;;;5.23;78.19;97900.50;4346305;32;34550;-90
2021/12/03 04:10:21;;;;;;;34.13;24.23;;;;;;;5.16;78.78;97908.97;4360478;32;33485;-90
2021/12/03 04:12:49;;;;;;;33.80;24.98;;;;;;;5.17;78.19;97905.56;4360484;32;33976;-89
2021/12/03 04:15:17;;;;;;;33.72;24.77;;;;;;;4.87;79.58;97924.81;4360195;32;34269;-89
2021/12/03 04:17:46;;;;;;;33.13;25.17;;;;;;;4.82;79.98;97931.59;4360530;32;33699;-90
2021/12/03 04:20:15;;;;;;;32.95;25.67;;;;;;;5.36;77.61;97933.22;4347119;32;33819;-90
2021/12/03 04:22:43;;;;;;;38.60;25.45;;;;;;;4.75;79.98;97952.88;4346045;32;33405;-90
2021/12/03 04:25:14;;;;;;;34.22;25.33;;;;;;;5.21;78.83;97948.44;4360550;32;34047;-90
2021/12/03 04:27:42;;;;;;;33.20;24.00;;;;;;;5.18;77.67;97956.09;4346674;32;33499;-89
2021/12/03 04:30:17;;;;;;;32.55;25.17;;;;;;;5.10;78.40;97965.37;4359203;32;33237;-89
2021/12/03 04:32:45;;;;;;;34.10;24.55;;;;;;;4.98;78.41;97965.22;4335270;32;34183;-89
2021/12/03 04:35:13;;;;;;;36.83;26.25;;;;;;;4.95;78.83;97971.16;4335536;32;33434;-90
2021/12/03 04:37:40;;;;;;;37.28;25.77;;;;;;;5.01;78.48;97984.09;4346744;32;33261;-89
2021/12/03 04:40:11;;;;;;;36.88;26.10;;;;;;;4.90;79.16;97988.19;4359269;32;33505;-90
2021/12/03 04:42:39;;;;;;;31.42;23.58;;;;;;;5.13;78.28;97996.28;4360081;32;34025;-94
2021/12/03 04:45:09;;;;;;;37.25;27.23;;;;;;;5.01;77.87;97993.53;4360258;32;34309;-90
2021/12/03 04:47:37;;;;;;;35.83;25.58;;;;;;;4.91;79.13;97995.06;4360019;32;33837;-90
2021/12/03 04:50:07;;;;;;;37.08;26.87;;;;;;;5.19;77.36;97998.94;4346761;32;34348;-92
2021/12/03 04:52:34;;;;;;;38.17;28.12;;;;;;;4.87;77.97;98009.56;4347141;32;33817;-90
2021/12/03 04:55:03;;;;;;;38.58;26.95;;;;;;;5.01;77.99;98014.06;4347000;32;34229;-90
2021/12/03 04:57:31;;;;;;;36.22;26.87;;;;;;;5.09;77.42;98021.03;4358275;32;33946;-89
2021/12/03 04:59:58;;;;;;;37.58;27.92;;;;;;;4.97;77.63;98020.84;4360130;32;33319;-89
2021/12/03 05:02:27;;;;;;;34.50;26.95;;;;;;;5.09;77.17;98027.91;4346524;32;33551;-91
2021/12/03 05:04:59;;;;;;;38.05;27.58;;;;;;;4.85;77.52;98044.63;4346393;32;35646;-91
2021/12/03 05:07:30;;;;;;;38.15;27.87;;;;;;;4.55;79.28;98047.50;4359921;32;34137;-90
2021/12/03 05:09:58;;;;;;;40.05;26.83;;;;;;;4.97;77.76;98045.69;4334498;32;32902;-90
2021/12/03 05:12:25;;;;;;;36.33;25.55;;;;;;;5.24;76.42;98050.41;4346743;32;32437;-89
2021/12/03 05:14:53;;;;;;;36.58;25.67;;;;;;;4.93;76.61;98055.03;4346397;32;34117;-94
2021/12/03 05:17:20;;;;;;;35.85;25.77;;;;;;;4.62;77.75;98059.63;4360319;32;34737;-90
2021/12/03 05:19:48;;;;;;;39.88;26.87;;;;;;;4.61;77.76;98070.72;4359199;32;33350;-90
2021/12/03 05:22:17;;;;;;;37.45;27.00;;;;;;;4.43;78.84;98077.19;4358720;32;31839;-90
2021/12/03 05:24:46;;;;;;;40.60;25.83;;;;;;;4.38;78.54;98087.37;4346140;32;34154;-91
2021/12/03 05:27:15;;;;;;;33.72;25.17;;;;;;;4.59;77.74;98095.50;4341997;32;33426;-90
2021/12/03 05:29:44;;;;;;;35.15;26.25;;;;;;;4.66;76.77;98096.50;4357837;32;33365;-89
2021/12/03 05:32:12;;;;;;;38.08;24.05;;;;;;;4.58;76.90;98098.91;4353077;32;33934;-90
2021/12/03 05:34:39;;;;;;;33.30;23.35;;;;;;;4.65;76.20;98099.88;4346557;32;33843;-92
2021/12/03 05:37:07;;;;;;;34.85;23.08;;;;;;;4.39;76.60;98112.19;4360201;32;33984;-89
2021/12/03 05:39:36;;;;;;;30.48;21.50;;;;;;;4.42;75.94;98119.09;4346823;32;33133;-90
2021/12/03 05:42:05;;;;;;;31.40;22.05;;;;;;;4.26;75.86;98107.66;4360068;32;33882;-90
2021/12/03 05:44:32;;;;;;;34.50;22.20;;;;;;;4.12;75.63;98115.06;4345552;32;34224;-92
2021/12/03 05:47:01;;;;;;;31.75;19.73;;;;;;;4.48;74.33;98142.34;4353586;32;33993;-90
2021/12/03 05:49:28;;;;;;;29.65;19.73;;;;;;;4.37;73.81;98142.97;4358055;32;33488;-90
2021/12/03 05:51:56;;;;;;;27.45;16.37;;;;;;;4.37;73.42;98153.22;4345616;32;33600;-90
2021/12/03 05:54:26;;;;;;;34.83;18.80;;;;;;;4.51;71.96;98155.19;4333223;32;34228;-89
2021/12/03 05:56:53;;;;;;;27.27;17.62;;;;;;;3.98;73.92;98171.19;4346031;32;33813;-89
2021/12/03 05:59:21;;;;;;;24.63;16.77;;;;;;;4.20;72.71;98177.66;4359332;32;33689;-90
2021/12/03 06:01:48;;;;;;;25.80;15.38;;;;;;;4.41;71.99;98182.38;4358964;32;33921;-90
2021/12/03 06:04:17;;;;;;;27.55;15.65;;;;;;;4.72;70.22;98186.44;4348638;32;33867;-93
2021/12/03 06:06:44;;;;;;;25.80;14.25;;;;;;;4.75;69.05;98195.91;4354974;32;33808;-89
2021/12/03 06:09:11;;;;;;;27.10;15.07;;;;;;;4.22;69.97;98201.66;4355541;32;34212;-93
2021/12/03 06:11:39;;;;;;;21.85;14.27;;;;;;;4.06;70.62;98192.75;4358440;32;33480;-90
2021/12/03 06:14:07;;;;;;;26.10;14.27;;;;;;;4.18;70.34;98199.84;4343579;32;34199;-90
2021/12/03 06:16:34;;;;;;;23.27;14.00;;;;;;;4.26;70.28;98213.72;4356961;32;33414;-91
2021/12/03 06:19:02;;;;;;;21.15;13.85;;;;;;;4.31;68.97;98212.09;4356951;32;34274;-91
2021/12/03 06:21:30;;;;;;;19.58;11.77;;;;;;;4.37;69.07;98212.25;4342740;32;33174;-92
2021/12/03 06:23:57;;;;;;;19.02;11.77;;;;;;;4.32;68.33;98221.56;4343100;32;35234;-91
2021/12/03 06:26:25;;;;;;;18.90;11.45;;;;;;;4.48;67.75;98219.31;4355362;32;33766;-92
2021/12/03 06:28:52;;;;;;;21.33;11.52;;;;;;;4.54;67.91;98229.69;4356795;32;33338;-90
2021/12/03 06:31:19;;;;;;;22.37;11.93;;;;;;;4.27;67.43;98238.53;4342905;32;33572;-89
2021/12/03 06:33:47;;;;;;;16.98;9.73;;;;;;;4.46;66.62;98246.63;4361320;32;34185;-91
2021/12/03 06:36:15;;;;;;;17.55;10.15;;;;;;;4.14;67.72;98250.22;4361303;32;33847;-90
2021/12/03 06:38:42;;;;;;;18.70;11.12;;;;;;;4.18;67.78;98260.56;4361495;32;33660;-90
2021/12/03 06:41:10;;;;;;;18.27;9.85;;;;;;;3.82;68.47;98280.19;4361416;32;33594;-91
2021/12/03 06:43:37;;;;;;;16.67;9.40;;;;;;;4.18;66.02;98289.62;4360517;32;33940;-90
2021/12/03 06:46:05;;;;;;;21.52;9.23;;;;;;;4.13;67.35;98291.22;4360215;32;33259;-91
2021/12/03 06:48:32;;;;;;;13.65;7.53;;;;;;;3.62;67.97;98301.91;4361844;32;34353;-91
2021/12/03 06:51:00;;;;;;;14.90;8.13;;;;;;;4.27;65.99;98297.53;4361334;32;33557;-90
2021/12/03 06:53:39;;;;;;;15.88;8.15;;;;;;;3.98;66.39;98311.34;4336084;32;34103;-91
2021/12/03 06:56:10;;;;;;;16.33;8.55;;;;;;;4.10;66.03;98312.53;4335440;32;33807;-90
2021/12/03 06:58:37;;;;;;;18.58;7.95;;;;;;;3.64;67.42;98311.38;4359587;32;34138;-90
2021/12/03 07:01:05;;;;;;;15.52;8.27;;;;;;;4.03;65.98;98318.34;4360115;32;33796;-91
2021/12/03 07:03:38;;;;;;;14.77;7.32;;;;;;;4.47;64.95;98331.37;4348476;32;34601;-91
2021/12/03 07:06:05;;;;;;;15.57;7.15;;;;;;;4.36;65.15;98332.84;4361279;32;34702;-91
2021/12/03 07:08:33;;;;;;;13.27;7.00;;;;;;;3.82;65.75;98339.16;4361535;32;33624;-90
2021/12/03 07:11:00;;;;;;;12.45;7.07;;;;;;;4.37;64.27;98342.25;4361092;32;33732;-90
2021/12/03 07:13:30;;;;;;;12.37;6.80;;;;;;;4.40;64.31;98350.03;4361375;32;34133;-90
2021/12/03 07:15:59;;;;;;;15.90;7.60;;;;;;;4.30;64.23;98356.63;4361243;32;34807;-90
2021/12/03 07:18:27;;;;;;;15.10;7.20;;;;;;;4.11;64.76;98354.44;4347694;32;34665;-90
2021/12/03 07:45:36;;;;;;;15.85;5.85;;;;;;;4.01;62.63;98432.84;4375692;32;20223;-87
2021/12/03 07:48:04;;;;;;;15.13;6.43;;;;;;;3.81;63.79;98442.56;4362599;32;34044;-88
2021/12/03 07:50:36;;;;;;;12.93;5.60;;;;;;;3.97;63.58;98446.41;4362511;32;33874;-88
2021/12/03 07:53:04;;;;;;;10.55;6.07;;;;;;;4.38;62.73;98449.19;4362305;32;33769;-88
2021/12/03 07:55:32;;;;;;;9.05;4.90;;;;;;;4.30;62.43;98451.56;4375907;32;33728;-88
2021/12/03 07:58:04;;;;;;;11.35;5.22;;;;;;;3.88;63.28;98462.41;4376263;32;35194;-88
2021/12/03 08:00:32;;;;;;;15.02;5.55;;;;;;;3.76;64.20;98477.47;4376031;32;33998;-88
2021/12/03 08:03:17;;;;;;;10.07;5.03;;;;;;;4.22;62.19;98477.88;4364533;32;33169;-88
2021/12/03 08:05:45;;;;;;;11.48;4.97;;;;;;;4.38;61.17;98500.53;4362368;32;34531;-87
2021/12/03 08:08:12;;;;;;;11.35;4.90;;;;;;;4.49;60.93;98493.09;4362323;32;32758;-88
2021/12/03 08:10:41;;;;;;;16.30;5.62;;;;;;;4.36;61.80;98495.38;4362273;32;34703;-88
2021/12/03 08:13:08;;;;;;;18.37;12.30;;;;;;;4.09;61.89;98504.84;4362266;32;33756;-88
2021/12/03 08:15:38;;;;;;;14.52;5.82;;;;;;;4.08;62.50;98523.66;4362645;32;33897;-88
2021/12/03 08:18:06;;;;;;;12.37;4.93;;;;;;;3.96;63.77;98516.47;4375985;32;34866;-88
2021/12/03 08:20:33;;;;;;;14.35;5.40;;;;;;;4.03;62.49;98525.22;4362257;32;33925;-88
2021/12/03 08:23:01;;;;;;;12.00;5.47;;;;;;;4.30;61.54;98523.41;4350019;32;33181;-88
2021/12/03 08:25:29;;;;;;;10.98;5.10;;;;;;;4.15;62.04;98539.25;4376064;32;33670;-88
2021/12/03 08:27:57;;;;;;;9.15;4.53;;;;;;;4.24;61.19;98537.75;4362381;32;33964;-87
2021/12/03 08:30:29;;;;;;;12.10;5.28;;;;;;;4.03;61.09;98535.47;4362520;32;34053;-87
2021/12/03 08:32:58;;;;;;;12.57;5.28;;;;;;;4.15;60.71;98534.12;4362350;32;34281;-88
2021/12/03 08:35:25;;;;;;;9.07;3.92;;;;;;;4.22;59.67;98545.44;4361904;32;33743;-88
2021/12/03 08:37:53;;;;;;;8.73;4.80;;;;;;;4.25;60.16;98550.66;4362008;32;33833;-87
2021/12/03 08:40:21;;;;;;;12.88;4.50;;;;;;;4.11;60.17;98550.25;4362590;32;33564;-87
2021/12/03 08:42:49;;;;;;;8.95;4.05;;;;;;;3.86;60.33;98555.50;4349755;32;31874;-88
2021/12/03 08:45:20;;;;;;;9.43;4.30;;;;;;;4.25;60.13;98566.03;4349854;32;32588;-88
2021/12/03 08:47:51;;;;;;;9.73;3.87;;;;;;;4.26;58.68;98566.91;4375709;32;34144;-88
2021/12/03 08:50:34;;;;;;;7.93;4.15;;;;;;;4.68;57.04;98577.47;4375785;32;34335;-88
2021/12/03 08:53:12;;;;;;;8.93;4.12;;;;;;;4.10;58.87;98597.25;4363775;32;33372;-88
2021/12/03 08:55:40;;;;;;;9.77;3.75;;;;;;;4.00;59.19;98591.81;4361878;32;33912;-88
2021/12/03 08:58:10;;;;;;;12.05;4.43;;;;;;;3.85;58.41;98587.97;4375725;32;34143;-88
2021/12/03 09:00:38;;;;;;;9.68;4.10;;;;;;;4.13;58.65;98588.81;4362229;32;34182;-88
2021/12/03 09:03:06;;;;;;;12.02;4.10;;;;;;;4.55;55.58;98601.97;4362187;32;33604;-88
2021/12/03 09:05:36;;;;;;;12.32;5.68;;;;;;;3.68;58.15;98608.81;4362111;32;34128;-88
2021/12/03 09:08:04;;;;;;;12.13;4.03;;;;;;;3.88;57.66;98623.09;4362013;32;32728;-88
2021/12/03 09:10:38;;;;;;;8.75;4.18;;;;;;;4.17;56.57;98625.62;4363123;32;33371;-88
2021/12/03 09:13:07;;;;;;;10.35;4.32;;;;;;;3.85;56.70;98626.44;4375801;32;33293;-88
2021/12/03 09:15:40;;;;;;;9.93;4.57;;;;;;;3.89;57.33;98632.53;4362693;32;34489;-88
2021/12/03 09:18:21;;;;;;;10.38;4.30;;;;;;;3.70;56.85;98646.47;4362779;32;33874;-88
2021/12/03 09:21:22;;;;;;;8.52;4.22;;;;;;;3.84;58.09;98649.47;4375804;32;33592;-88
2021/12/03 09:26:28;;;;;;;9.90;4.18;;;;;;;3.92;58.06;98647.13;4375423;32;33364;-88
2021/12/03 09:29:03;;;;;;;9.43;4.57;;;;;;;4.22;57.17;98653.19;4375221;32;34946;-88
2021/12/03 09:31:32;;;;;;;9.80;3.80;;;;;;;4.41;56.16;98654.59;4362274;32;34164;-88
2021/12/03 09:34:00;;;;;;;10.10;4.25;;;;;;;4.29;56.63;98649.97;4362109;32;34145;-88
2021/12/03 09:36:27;;;;;;;11.40;4.15;;;;;;;4.03;55.68;98640.66;4361562;32;33558;-88
2021/12/03 09:38:55;;;;;;;8.15;3.72;;;;;;;4.11;55.98;98644.31;4361721;32;34922;-88
2021/12/03 09:41:23;;;;;;;10.65;4.75;;;;;;;3.76;56.20;98636.41;4361723;32;33907;-88
2021/12/03 09:43:52;;;;;;;7.85;3.37;;;;;;;4.11;54.99;98644.31;4361395;32;32985;-87
2021/12/03 09:46:25;;;;;;;7.20;3.55;;;;;;;4.11;54.95;98645.16;4375452;32;33521;-88
2021/12/03 09:49:42;;;;;;;8.88;3.78;;;;;;;4.30;54.48;98641.44;4362067;32;34126;-87
2021/12/03 09:56:41;;;;;;;7.37;3.60;;;;;;;4.20;52.36;98644.56;4361636;32;34752;-88
2021/12/03 10:01:43;;;;;;;7.82;3.58;;;;;;;4.34;54.34;98648.41;4361391;32;34471;-87
2021/12/03 10:15:04;;;;;;;8.52;4.05;;;;;;;4.67;53.86;98670.75;4375011;32;33571;-88
2021/12/03 10:17:47;;;;;;;10.43;3.83;;;;;;;4.56;53.63;98673.00;4374590;32;33741;-89
2021/12/03 10:20:32;;;;;;;9.63;4.12;;;;;;;4.71;54.10;98659.72;4374567;32;34773;-87
2021/12/03 10:34:13;;;;;;;9.82;4.00;;;;;;;4.71;53.86;98670.00;4362428;32;33722;-88
2021/12/03 10:39:35;;;;;;;9.50;4.20;;;;;;;4.54;54.16;98686.59;4374673;32;33519;-87
2021/12/03 11:01:50;;;;;;;9.18;3.87;;;;;;;4.59;54.18;98685.94;4363097;32;33524;-88
2021/12/03 11:12:58;;;;;;;9.50;3.78;;;;;;;5.18;52.48;98688.38;4374224;32;33523;-88
2021/12/03 11:18:54;;;;;;;9.93;3.80;;;;;;;5.07;50.92;98705.22;4363495;32;33132;-88
2021/12/03 11:27:18;;;;;;;11.12;4.72;;;;;;;4.94;50.91;98714.28;4376545;32;34802;-87
2021/12/03 11:37:34;;;;;;;8.18;3.72;;;;;;;5.00;49.74;98740.16;4365129;32;33958;-88
2021/12/03 12:29:00;;;;;;;8.57;3.95;;;;;;;5.29;50.63;98769.22;4364583;32;33284;-88
2021/12/03 13:06:39;;;;;;;8.10;4.33;;;;;;;4.68;52.92;98803.44;4360921;32;33751;-87
2021/12/03 14:44:52;;;;;;;8.85;3.45;;;;;;;3.99;51.60;98893.59;4359430;32;33581;-87
2021/12/03 14:50:50;;;;;;;7.37;3.35;;;;;;;4.21;51.49;98887.50;4359517;32;34027;-88
2021/12/03 14:55:56;;;;;;;8.05;3.60;;;;;;;4.65;50.68;98895.75;4370240;32;33220;-88
2021/12/03 15:07:00;;;;;;;6.78;3.53;;;;;;;4.07;51.55;98906.69;4363340;32;33883;-87
2021/12/03 15:09:40;;;;;;;10.27;4.57;;;;;;;4.38;50.39;98906.00;4376338;32;34223;-87
2021/12/03 15:26:01;;;;;;;12.55;4.97;;;;;;;4.19;51.81;98927.63;4375520;32;33733;-87
2021/12/03 15:31:16;;;;;;;10.60;4.78;;;;;;;4.14;51.79;98945.44;4367892;32;34286;-88
2021/12/03 15:36:16;;;;;;;9.82;4.70;;;;;;;4.09;50.83;98951.19;4357191;32;33626;-87
2021/12/03 15:57:35;;;;;;;8.27;4.03;;;;;;;4.14;49.56;98958.25;4358393;32;33205;-88
2021/12/03 16:08:17;;;;;;;89.50;42.75;;;;;;;3.93;49.24;98979.72;4360674;32;33392;-87
2021/12/03 16:10:55;;;;;;;25.42;16.00;;;;;;;3.92;50.60;98991.66;4348345;32;33997;-86
2021/12/03 16:54:09;;;;;;;10.05;5.85;;;;;;;3.12;50.74;99023.66;4366055;32;34996;-87
2021/12/03 16:56:43;;;;;;;8.40;4.60;;;;;;;3.28;48.65;99025.13;4338730;32;34185;-85
2021/12/03 16:59:11;;;;;;;10.10;5.12;;;;;;;3.09;51.81;99028.62;4365016;32;34025;-88
2021/12/03 17:05:21;;;;;;;7.90;4.28;;;;;;;2.89;49.58;99033.84;4357399;32;33647;-90
2021/12/03 17:12:56;;;;;;;9.10;4.90;;;;;;;3.24;50.13;99015.56;4361827;32;33716;-84
2021/12/03 17:18:51;;;;;;;217.57;96.68;;;;;;;3.54;49.77;99019.31;4359399;32;34051;-87
2021/12/03 17:30:04;;;;;;;11.68;5.97;;;;;;;2.63;51.28;99034.44;4371132;32;33804;-87
2021/12/03 17:46:33;;;;;;;13.75;5.97;;;;;;;2.98;50.99;99046.13;4374672;32;34048;-85
2021/12/03 17:57:05;;;;;;;13.95;6.05;;;;;;;3.69;51.21;99057.47;4359824;32;33495;-87
2021/12/03 17:59:39;;;;;;;13.48;7.03;;;;;;;3.60;51.78;99064.84;4343463;32;33862;-86
2021/12/03 18:07:32;;;;;;;15.43;7.47;;;;;;;3.54;52.36;99074.84;4372368;32;33531;-87
2021/12/03 18:54:05;;;;;;;15.88;6.90;;;;;;;3.23;52.98;99063.37;4359764;32;34049;-87
2021/12/03 18:56:54;;;;;;;14.23;6.68;;;;;;;3.34;53.35;99061.25;4359321;32;33870;-88
2021/12/03 18:59:25;;;;;;;12.18;5.93;;;;;;;3.32;53.06;99060.28;4349190;32;33643;-89
2021/12/03 19:01:53;;;;;;;15.20;7.45;;;;;;;2.92;54.47;99077.50;4343287;32;33010;-86
2021/12/03 19:04:36;;;;;;;10.85;6.32;;;;;;;3.07;53.65;99084.03;4375039;32;33442;-88
2021/12/03 19:07:15;;;;;;;12.32;6.90;;;;;;;3.37;53.00;99074.16;4374426;32;34069;-89
2021/12/03 19:09:47;;;;;;;14.48;7.28;;;;;;;3.20;53.65;99063.25;4362702;32;33659;-90
2021/12/03 19:12:21;;;;;;;14.75;7.82;;;;;;;2.71;53.27;99056.13;4357069;32;34142;-86
2021/12/03 19:14:52;;;;;;;17.58;9.02;;;;;;;2.61;53.04;99065.09;4344472;32;34072;-85
2021/12/03 19:17:22;;;;;;;21.05;10.15;;;;;;;2.39;53.30;99062.44;4356811;32;34178;-87
2021/12/03 19:19:55;;;;;;;16.90;8.48;;;;;;;2.46;53.15;99059.31;4356970;32;34489;-85
2021/12/03 19:22:23;;;;;;;15.48;8.07;;;;;;;2.83;52.99;99059.19;4357193;32;33848;-86
2021/12/03 19:24:57;;;;;;;12.10;7.57;;;;;;;3.05;52.17;99065.19;4359352;32;34105;-86
2021/12/03 19:27:26;;;;;;;14.20;8.20;;;;;;;2.82;53.29;99061.69;4346246;32;34892;-86
2021/12/03 19:29:57;;;;;;;12.57;6.90;;;;;;;2.97;53.56;99064.00;4369136;32;34682;-89
2021/12/03 19:32:28;;;;;;;14.07;8.05;;;;;;;3.13;53.65;99068.94;4349942;32;33413;-89
2021/12/03 19:34:55;;;;;;;14.00;8.02;;;;;;;3.16;53.15;99076.75;4343747;32;33672;-87
2021/12/03 19:37:25;;;;;;;15.25;7.35;;;;;;;3.12;53.47;99078.31;4348865;32;33598;-88
2021/12/03 19:39:53;;;;;;;14.02;7.87;;;;;;;2.96;53.46;99082.75;4358057;32;34457;-86